YWLM/NTL METAR and TAF weather

Enter ICAO airport designator
Station Type Date Time Source
YWLM METAR 2022/05/24 11:30 UTC NOAA

YWLM 241130Z AUTO 30005KT 9999 // SCT028 BKN033 BKN042 14/14 Q1026


Station Type Date Time Source
YWLM Decoded METAR 2022/05/24 11:30 UTC NOAA

Station name not available
May 24, 2022 - 07:30 AM EDT / 2022.05.24 1130 UTC
Wind: from the WNW (300 degrees) at 6 MPH (5 KT):0
Visibility: greater than 7 mile(s):0
Sky conditions: mostly cloudy
Temperature: 57 F (14 C)
Dew Point: 57 F (14 C)
Relative Humidity: 100%
Pressure (altimeter): 30.30 in. Hg (1026 hPa)
ob: YWLM 241130Z AUTO 30005KT 9999 // SCT028 BKN033 BKN042 14/14 Q1026
cycle: 11

Station Type Date Time Source
YWLM TAF 2022/05/24 12:15 UTC NOAA

TAF
AMD YWLM 241112Z 2412/2512 30005KT 9999 -SHRA SCT010 SCT030
FM250300 05010KT 9999 -SHRA FEW015 SCT030
FM250900 30005KT 9999 NSW FEW025 INTER 2412/2506 3000 SHRA SCT005 BKN015 PROB40 2414/2422 0300 FG BKN001

Example: see airport list